createdAt,value
2018-09-29T00:01:14.496Z,99.90
2018-09-29T00:03:43.188Z,99.90
2018-09-29T00:06:11.874Z,99.90
2018-09-29T00:08:40.889Z,99.90
2018-09-29T00:11:09.865Z,99.90
2018-09-29T00:13:38.583Z,99.90
2018-09-29T00:16:07.686Z,99.90
2018-09-29T00:18:36.337Z,99.90
2018-09-29T00:21:05.196Z,99.90
2018-09-29T00:23:34.293Z,99.90
2018-09-29T00:26:03.290Z,99.90
2018-09-29T00:28:32.429Z,99.90
2018-09-29T00:31:01.430Z,99.90
2018-09-29T00:33:30.143Z,99.90
2018-09-29T00:35:58.916Z,99.90
2018-09-29T00:38:27.668Z,99.90
2018-09-29T00:40:56.498Z,99.90
2018-09-29T00:43:25.166Z,99.90
2018-09-29T00:45:53.870Z,99.90
2018-09-29T00:48:22.546Z,99.90
2018-09-29T00:50:51.645Z,99.90
2018-09-29T00:53:20.677Z,99.90
2018-09-29T00:55:49.705Z,99.90
2018-09-29T00:58:18.765Z,99.90
2018-09-29T01:00:47.791Z,99.90
2018-09-29T01:03:16.497Z,99.90
2018-09-29T01:05:45.215Z,99.90
2018-09-29T01:08:13.910Z,99.90
2018-09-29T01:10:42.668Z,99.90
2018-09-29T01:13:11.336Z,99.90
2018-09-29T01:15:40.043Z,99.90
2018-09-29T01:18:09.400Z,99.90
2018-09-29T01:20:38.142Z,99.90
2018-09-29T01:23:06.870Z,99.90
2018-09-29T01:25:35.527Z,99.90
2018-09-29T01:28:04.231Z,99.90
2018-09-29T01:30:32.907Z,99.90
2018-09-29T01:33:01.638Z,99.90
2018-09-29T01:35:30.305Z,99.90
2018-09-29T01:37:59.049Z,99.90
2018-09-29T01:40:27.760Z,99.90
2018-09-29T01:42:56.494Z,99.90
2018-09-29T01:45:25.180Z,99.90
2018-09-29T01:47:53.891Z,99.90
2018-09-29T01:50:22.672Z,99.90
2018-09-29T01:52:51.412Z,99.90
2018-09-29T01:55:20.101Z,99.90
2018-09-29T01:57:48.835Z,99.90
2018-09-29T02:00:17.560Z,99.90
2018-09-29T02:02:46.309Z,99.90
2018-09-29T02:05:15.022Z,99.90
2018-09-29T02:07:43.690Z,99.90
2018-09-29T02:10:12.451Z,99.90
2018-09-29T02:12:41.215Z,99.90
2018-09-29T02:15:09.969Z,99.90
2018-09-29T02:17:38.849Z,99.90
2018-09-29T02:20:07.601Z,99.90
2018-09-29T02:22:36.276Z,99.90
2018-09-29T02:25:04.973Z,99.90
2018-09-29T02:27:33.669Z,99.90
2018-09-29T02:30:02.379Z,99.90
2018-09-29T02:32:31.067Z,99.90
2018-09-29T02:34:59.801Z,99.90
2018-09-29T02:37:28.490Z,99.90
2018-09-29T02:39:57.196Z,99.90
2018-09-29T02:42:25.973Z,99.90
2018-09-29T02:44:54.692Z,99.90
2018-09-29T02:47:23.394Z,99.90
2018-09-29T02:49:52.097Z,99.90
2018-09-29T02:52:20.802Z,99.90
2018-09-29T02:54:49.546Z,99.90
2018-09-29T02:57:18.241Z,99.90
2018-09-29T02:59:47.264Z,99.90
2018-09-29T03:02:15.944Z,99.90
2018-09-29T03:04:44.642Z,99.90
2018-09-29T03:07:13.375Z,99.90
2018-09-29T03:09:42.044Z,99.90
2018-09-29T03:12:10.708Z,99.90
2018-09-29T03:14:39.417Z,99.90
2018-09-29T03:17:08.191Z,99.90
2018-09-29T03:19:36.993Z,99.90
2018-09-29T03:22:05.697Z,99.90
2018-09-29T03:24:34.441Z,99.90
2018-09-29T03:27:03.102Z,99.90
2018-09-29T03:29:31.846Z,99.90
2018-09-29T03:32:00.680Z,99.90
2018-09-29T03:34:29.286Z,99.90
2018-09-29T03:36:58.246Z,99.90
2018-09-29T03:39:26.965Z,99.90
2018-09-29T03:41:55.637Z,99.90
2018-09-29T03:44:24.363Z,99.90
2018-09-29T03:46:53.062Z,99.90
2018-09-29T03:49:21.793Z,99.90
2018-09-29T03:51:50.505Z,99.90
2018-09-29T03:54:19.196Z,99.90
2018-09-29T03:56:47.850Z,99.90
2018-09-29T03:59:16.545Z,99.90
2018-09-29T04:01:45.286Z,99.90
2018-09-29T04:04:13.940Z,99.90
2018-09-29T04:06:42.594Z,99.90
2018-09-29T04:09:11.316Z,99.90
2018-09-29T04:11:39.993Z,99.90
2018-09-29T04:14:08.715Z,99.90
2018-09-29T04:16:37.498Z,99.90
2018-09-29T04:19:06.331Z,99.90
2018-09-29T04:21:44.968Z,99.90
2018-09-29T04:24:13.753Z,99.90
2018-09-29T04:26:42.468Z,99.90
2018-09-29T04:29:11.601Z,99.90
2018-09-29T04:31:40.961Z,99.90
2018-09-29T04:34:10.137Z,99.90
2018-09-29T04:36:38.831Z,99.90
2018-09-29T04:39:10.545Z,99.90
2018-09-29T04:41:39.642Z,99.90
2018-09-29T04:44:09.157Z,99.90
2018-09-29T04:46:37.983Z,99.90
2018-09-29T04:49:06.899Z,99.90
2018-09-29T04:51:35.675Z,99.90
2018-09-29T04:54:04.402Z,99.90
2018-09-29T04:56:33.845Z,99.90
2018-09-29T04:59:02.571Z,99.90
2018-09-29T05:01:31.287Z,99.90
2018-09-29T05:04:00.015Z,99.90
2018-09-29T05:06:28.690Z,99.90
2018-09-29T05:08:57.390Z,99.90
2018-09-29T05:11:26.049Z,99.90
2018-09-29T05:13:54.772Z,99.90
2018-09-29T05:16:23.444Z,99.90
2018-09-29T05:18:52.111Z,99.90
2018-09-29T05:21:20.813Z,99.90
2018-09-29T05:23:49.476Z,99.90
2018-09-29T05:26:18.202Z,99.90
2018-09-29T05:28:46.902Z,99.90
2018-09-29T05:31:15.658Z,99.90
2018-09-29T05:33:44.331Z,99.90
2018-09-29T05:36:13.046Z,99.90
2018-09-29T05:38:41.758Z,99.90
2018-09-29T05:41:10.444Z,99.90
2018-09-29T05:43:39.134Z,99.90
2018-09-29T05:46:07.846Z,99.90
2018-09-29T05:48:36.639Z,99.90
2018-09-29T05:51:05.354Z,99.90
2018-09-29T05:53:34.038Z,99.90
2018-09-29T05:56:03.000Z,99.90
2018-09-29T05:58:31.790Z,99.90
2018-09-29T06:01:00.472Z,99.90
2018-09-29T06:03:29.199Z,99.90
2018-09-29T06:05:57.926Z,99.90
2018-09-29T06:08:26.613Z,99.90
2018-09-29T06:10:55.352Z,99.90
2018-09-29T06:13:24.207Z,99.90
2018-09-29T06:15:52.997Z,99.90
2018-09-29T06:18:21.713Z,99.90
2018-09-29T06:20:50.538Z,99.90
2018-09-29T06:23:19.230Z,99.90
2018-09-29T06:25:47.937Z,99.90
2018-09-29T06:28:16.643Z,99.90
2018-09-29T06:30:45.356Z,99.90
2018-09-29T06:33:14.097Z,99.90
2018-09-29T06:35:42.846Z,99.90
2018-09-29T06:38:11.561Z,99.90
2018-09-29T06:40:40.372Z,99.90
2018-09-29T06:43:09.006Z,99.90
2018-09-29T06:45:37.703Z,99.90
2018-09-29T06:48:06.380Z,99.90
2018-09-29T06:50:35.134Z,99.90
2018-09-29T06:53:03.856Z,99.90
2018-09-29T06:55:32.588Z,99.90
2018-09-29T06:58:01.269Z,99.90
2018-09-29T07:00:29.945Z,99.90
2018-09-29T07:02:58.739Z,99.90
2018-09-29T07:05:27.477Z,99.90
2018-09-29T07:07:56.194Z,99.90
2018-09-29T07:10:24.865Z,99.90
2018-09-29T07:12:53.636Z,99.90
2018-09-29T07:15:22.291Z,99.90
2018-09-29T07:17:51.052Z,99.90
2018-09-29T07:20:19.791Z,99.90
2018-09-29T07:22:48.506Z,99.90
2018-09-29T07:25:17.226Z,99.90
2018-09-29T07:27:45.943Z,99.90
2018-09-29T07:30:14.771Z,99.90
2018-09-29T07:32:43.512Z,99.90
2018-09-29T07:35:12.188Z,99.90
2018-09-29T07:37:40.920Z,99.90
2018-09-29T07:40:09.662Z,99.90
2018-09-29T07:42:38.328Z,99.90
2018-09-29T07:45:07.102Z,99.90
2018-09-29T07:47:35.790Z,99.90
2018-09-29T07:50:04.591Z,99.90
2018-09-29T07:52:33.373Z,99.90
2018-09-29T07:55:02.097Z,99.90
2018-09-29T07:57:30.772Z,99.90
2018-09-29T07:59:59.509Z,99.90
2018-09-29T08:02:28.305Z,99.90
2018-09-29T08:04:57.025Z,99.90
2018-09-29T08:07:25.733Z,99.30
2018-09-29T08:09:54.454Z,98.40
2018-09-29T08:12:23.193Z,99.70
2018-09-29T08:14:51.876Z,99.90
2018-09-29T08:20:07.430Z,98.90
2018-09-29T08:22:36.145Z,97.60
2018-09-29T08:25:05.019Z,97.80
2018-09-29T08:27:33.778Z,97.20
2018-09-29T08:30:02.534Z,94.10
2018-09-29T08:32:31.247Z,90.60
2018-09-29T08:35:00.026Z,92.40
2018-09-29T08:37:28.703Z,92.10
2018-09-29T08:39:57.432Z,91.30
2018-09-29T08:42:26.090Z,90.90
2018-09-29T08:44:54.816Z,85.30
2018-09-29T08:47:23.730Z,88.30
2018-09-29T08:49:52.534Z,85.60
2018-09-29T08:52:21.267Z,78.20
2018-09-29T08:54:49.928Z,70.70
2018-09-29T08:57:18.642Z,73.60
2018-09-29T08:59:47.340Z,71.40
2018-09-29T09:02:16.085Z,72.40
2018-09-29T09:04:44.758Z,74.70
2018-09-29T09:07:13.428Z,78.70
2018-09-29T09:09:42.150Z,70.40
2018-09-29T09:12:10.831Z,72.10
2018-09-29T09:14:39.558Z,65.10
2018-09-29T09:17:08.236Z,68.20
2018-09-29T09:19:36.979Z,65.70
2018-09-29T09:22:05.714Z,65.70
2018-09-29T09:24:34.429Z,63.90
2018-09-29T09:27:03.113Z,67.00
2018-09-29T09:29:31.819Z,60.00
2018-09-29T09:32:00.536Z,59.70
2018-09-29T09:34:29.255Z,59.90
2018-09-29T09:36:57.970Z,60.80
2018-09-29T09:39:26.687Z,61.40
2018-09-29T09:41:55.395Z,58.10
2018-09-29T09:44:24.104Z,62.80
2018-09-29T09:46:52.799Z,59.80
2018-09-29T09:49:21.567Z,62.50
2018-09-29T09:51:50.680Z,63.00
2018-09-29T09:54:19.353Z,59.40
2018-09-29T09:56:48.107Z,59.60
2018-09-29T09:59:16.795Z,63.10
2018-09-29T10:01:51.881Z,60.70
2018-09-29T10:04:20.598Z,62.90
2018-09-29T10:06:49.491Z,65.50
2018-09-29T10:09:18.185Z,63.40
2018-09-29T10:11:46.926Z,64.10
2018-09-29T10:14:15.654Z,62.40
2018-09-29T10:16:44.360Z,63.20
2018-09-29T10:19:13.072Z,64.60
2018-09-29T10:21:41.738Z,65.40
2018-09-29T10:24:10.478Z,69.40
2018-09-29T10:26:39.194Z,69.60
2018-09-29T10:29:07.913Z,70.70
2018-09-29T10:31:36.653Z,72.10
2018-09-29T10:34:05.401Z,73.70
2018-09-29T10:36:34.091Z,80.10
2018-09-29T10:39:02.826Z,78.10
2018-09-29T10:41:31.545Z,80.60
2018-09-29T10:44:00.303Z,82.00
2018-09-29T10:46:29.055Z,84.40
2018-09-29T10:48:57.786Z,93.60
2018-09-29T10:51:26.467Z,89.20
2018-09-29T10:53:55.185Z,91.00
2018-09-29T10:56:23.920Z,91.80
2018-09-29T10:58:52.638Z,89.70
2018-09-29T11:01:21.349Z,88.30
2018-09-29T11:03:50.083Z,90.40
2018-09-29T11:06:18.768Z,90.90
2018-09-29T11:08:47.502Z,90.40
2018-09-29T11:11:16.206Z,93.40
2018-09-29T11:13:45.035Z,92.80
2018-09-29T11:16:13.911Z,91.60
2018-09-29T11:18:42.611Z,90.00
2018-09-29T11:21:11.360Z,90.60
2018-09-29T11:23:40.038Z,89.20
2018-09-29T11:26:08.751Z,90.40
2018-09-29T11:28:37.422Z,92.70
2018-09-29T11:31:06.407Z,93.20
2018-09-29T11:33:35.143Z,92.30
2018-09-29T11:36:03.854Z,90.50
2018-09-29T11:38:32.581Z,91.90
2018-09-29T11:41:01.283Z,93.10
2018-09-29T11:43:29.999Z,92.80
2018-09-29T11:45:58.723Z,93.40
2018-09-29T11:48:27.428Z,93.40
2018-09-29T11:50:56.234Z,92.50
2018-09-29T11:53:24.922Z,92.40
2018-09-29T11:55:53.633Z,93.90
2018-09-29T11:58:22.337Z,91.70
2018-09-29T12:00:51.376Z,92.10
2018-09-29T12:03:20.075Z,93.80
2018-09-29T12:05:48.871Z,93.60
2018-09-29T12:08:17.593Z,90.40
2018-09-29T12:10:46.370Z,89.90
2018-09-29T12:13:15.087Z,91.30
2018-09-29T12:15:43.774Z,90.80
2018-09-29T12:18:12.480Z,90.20
2018-09-29T12:20:41.194Z,90.30
2018-09-29T12:23:09.962Z,91.30
2018-09-29T12:25:38.659Z,91.60
2018-09-29T12:28:07.340Z,92.50
2018-09-29T12:30:36.068Z,92.40
2018-09-29T12:33:04.888Z,93.40
2018-09-29T12:35:33.641Z,94.90
2018-09-29T12:38:02.364Z,91.50
2018-09-29T12:40:31.074Z,90.80
2018-09-29T12:42:59.881Z,90.00
2018-09-29T12:45:28.615Z,91.80
2018-09-29T12:47:57.391Z,90.40
2018-09-29T12:50:26.219Z,91.70
2018-09-29T12:53:00.801Z,90.00
2018-09-29T12:55:29.574Z,90.60
2018-09-29T12:57:58.256Z,92.80
2018-09-29T13:00:27.059Z,91.10
2018-09-29T13:02:55.732Z,93.00
2018-09-29T13:05:29.771Z,91.10
2018-09-29T13:07:58.544Z,90.80
2018-09-29T13:10:27.317Z,81.00
2018-09-29T13:12:56.008Z,84.10
2018-09-29T13:15:24.917Z,86.00
2018-09-29T13:17:53.634Z,78.20
2018-09-29T13:20:22.376Z,80.70
2018-09-29T13:22:51.179Z,78.50
2018-09-29T13:25:19.914Z,80.90
2018-09-29T13:27:48.688Z,82.80
2018-09-29T13:30:17.422Z,78.80
2018-09-29T13:32:46.214Z,81.80
2018-09-29T13:35:14.928Z,78.00
2018-09-29T13:37:43.685Z,81.70
2018-09-29T13:40:12.413Z,86.80
2018-09-29T13:42:41.141Z,85.20
2018-09-29T13:45:09.822Z,85.20
2018-09-29T13:47:38.546Z,86.90
2018-09-29T13:50:07.700Z,84.60
2018-09-29T13:52:36.442Z,83.50
2018-09-29T13:55:05.301Z,85.00
2018-09-29T13:57:34.030Z,83.30
2018-09-29T14:00:02.825Z,84.60
2018-09-29T14:02:31.545Z,80.50
2018-09-29T14:05:00.329Z,84.90
2018-09-29T14:07:29.090Z,86.70
2018-09-29T14:09:57.805Z,85.60
2018-09-29T14:12:26.615Z,85.00
2018-09-29T14:14:55.358Z,89.40
2018-09-29T14:17:24.060Z,86.00
2018-09-29T14:19:52.811Z,86.10
2018-09-29T14:22:21.523Z,77.00
2018-09-29T14:24:56.833Z,80.70
2018-09-29T14:27:26.428Z,79.50
2018-09-29T14:29:55.171Z,76.20
2018-09-29T14:32:23.926Z,76.40
2018-09-29T14:34:52.682Z,76.60
2018-09-29T14:37:21.624Z,74.30
2018-09-29T14:39:50.333Z,70.90
2018-09-29T14:42:19.137Z,73.80
2018-09-29T14:44:47.882Z,73.50
2018-09-29T14:47:16.599Z,71.50
2018-09-29T14:49:45.499Z,69.80
2018-09-29T14:52:14.272Z,72.10
2018-09-29T14:54:42.916Z,67.40
2018-09-29T14:57:11.635Z,71.90
2018-09-29T14:59:40.322Z,69.70
2018-09-29T15:02:09.014Z,69.80
2018-09-29T15:04:41.502Z,69.30
2018-09-29T15:07:10.179Z,69.50
